sensor_id;sensor_type;location;lat;lon;timestamp;pressure;altitude;pressure_sealevel;temperature;humidity
804;BME280;25687;49.976;8.240;2022-07-23T00:00:14;99989.53;;;21.95;68.97
804;BME280;25687;49.976;8.240;2022-07-23T00:02:40;99993.78;;;21.87;69.16
804;BME280;25687;49.976;8.240;2022-07-23T00:05:05;99995.06;;;21.75;70.07
804;BME280;25687;49.976;8.240;2022-07-23T00:07:31;100000.59;;;21.64;70.64
804;BME280;25687;49.976;8.240;2022-07-23T00:09:56;99998.28;;;21.60;71.33
804;BME280;25687;49.976;8.240;2022-07-23T00:12:21;100001.41;;;21.64;72.22
804;BME280;25687;49.976;8.240;2022-07-23T00:14:47;99996.53;;;21.43;73.42
804;BME280;25687;49.976;8.240;2022-07-23T00:17:12;99983.03;;;21.21;74.38
804;BME280;25687;49.976;8.240;2022-07-23T00:19:37;99985.16;;;21.26;75.00
804;BME280;25687;49.976;8.240;2022-07-23T00:22:03;99986.69;;;21.28;74.70
804;BME280;25687;49.976;8.240;2022-07-23T00:24:28;100000.41;;;21.31;74.38
804;BME280;25687;49.976;8.240;2022-07-23T00:26:54;99987.03;;;21.34;74.00
804;BME280;25687;49.976;8.240;2022-07-23T00:29:19;99979.19;;;21.34;74.03
804;BME280;25687;49.976;8.240;2022-07-23T00:31:44;99977.31;;;21.26;74.99
804;BME280;25687;49.976;8.240;2022-07-23T00:34:09;99968.94;;;21.14;75.95
804;BME280;25687;49.976;8.240;2022-07-23T00:36:35;99956.56;;;21.24;75.33
804;BME280;25687;49.976;8.240;2022-07-23T00:39:00;99962.63;;;21.25;75.56
804;BME280;25687;49.976;8.240;2022-07-23T00:41:25;99958.84;;;21.19;75.95
804;BME280;25687;49.976;8.240;2022-07-23T00:43:51;99966.34;;;21.14;76.26
804;BME280;25687;49.976;8.240;2022-07-23T00:46:20;99977.56;;;21.06;77.28
804;BME280;25687;49.976;8.240;2022-07-23T00:48:45;99990.53;;;20.90;79.37
804;BME280;25687;49.976;8.240;2022-07-23T00:51:11;100001.84;;;20.99;79.46
804;BME280;25687;49.976;8.240;2022-07-23T00:53:36;100010.69;;;20.98;79.47
804;BME280;25687;49.976;8.240;2022-07-23T00:56:02;100025.09;;;21.02;79.86
804;BME280;25687;49.976;8.240;2022-07-23T00:58:27;100041.16;;;21.07;79.61
804;BME280;25687;49.976;8.240;2022-07-23T01:00:53;100035.31;;;21.13;78.63
804;BME280;25687;49.976;8.240;2022-07-23T01:03:18;100025.91;;;21.02;78.28
804;BME280;25687;49.976;8.240;2022-07-23T01:05:44;100024.72;;;21.23;76.31
804;BME280;25687;49.976;8.240;2022-07-23T01:08:09;100019.78;;;21.46;75.23
804;BME280;25687;49.976;8.240;2022-07-23T01:10:36;100030.91;;;21.48;78.49
804;BME280;25687;49.976;8.240;2022-07-23T01:13:07;100033.16;;;21.43;81.68
804;BME280;25687;49.976;8.240;2022-07-23T01:15:34;100023.78;;;21.32;87.14
804;BME280;25687;49.976;8.240;2022-07-23T01:18:01;100002.78;;;21.16;89.83
804;BME280;25687;49.976;8.240;2022-07-23T01:20:27;99989.81;;;21.06;92.55
804;BME280;25687;49.976;8.240;2022-07-23T01:22:52;99983.56;;;20.99;95.93
804;BME280;25687;49.976;8.240;2022-07-23T01:25:19;99959.47;;;20.87;97.15
804;BME280;25687;49.976;8.240;2022-07-23T01:27:44;99943.59;;;20.62;97.16
804;BME280;25687;49.976;8.240;2022-07-23T01:30:10;99969.13;;;20.68;99.09
804;BME280;25687;49.976;8.240;2022-07-23T01:32:36;99991.63;;;20.79;100.00
804;BME280;25687;49.976;8.240;2022-07-23T01:35:03;99987.97;;;20.72;100.00
804;BME280;25687;49.976;8.240;2022-07-23T01:37:28;99980.44;;;20.51;100.00
804;BME280;25687;49.976;8.240;2022-07-23T01:39:53;99977.16;;;20.48;100.00
804;BME280;25687;49.976;8.240;2022-07-23T01:42:19;99975.50;;;20.47;100.00
804;BME280;25687;49.976;8.240;2022-07-23T01:44:44;99973.97;;;20.37;100.00
804;BME280;25687;49.976;8.240;2022-07-23T01:47:10;99985.66;;;20.32;100.00
804;BME280;25687;49.976;8.240;2022-07-23T01:49:35;99979.69;;;20.40;100.00
804;BME280;25687;49.976;8.240;2022-07-23T01:52:00;99978.63;;;20.51;100.00
804;BME280;25687;49.976;8.240;2022-07-23T01:54:30;99977.94;;;20.49;100.00
804;BME280;25687;49.976;8.240;2022-07-23T01:56:57;99960.88;;;20.55;100.00
804;BME280;25687;49.976;8.240;2022-07-23T01:59:23;99995.03;;;20.61;100.00
804;BME280;25687;49.976;8.240;2022-07-23T02:01:49;100008.06;;;20.53;100.00
804;BME280;25687;49.976;8.240;2022-07-23T02:04:16;100015.53;;;20.48;100.00
804;BME280;25687;49.976;8.240;2022-07-23T02:06:42;100015.16;;;20.43;100.00
804;BME280;25687;49.976;8.240;2022-07-23T02:09:07;100003.78;;;20.34;100.00
804;BME280;25687;49.976;8.240;2022-07-23T02:11:32;99996.72;;;20.26;100.00
804;BME280;25687;49.976;8.240;2022-07-23T02:13:58;100002.03;;;20.35;100.00
804;BME280;25687;49.976;8.240;2022-07-23T02:16:23;100003.94;;;20.32;100.00
804;BME280;25687;49.976;8.240;2022-07-23T02:18:49;99997.69;;;20.07;100.00
804;BME280;25687;49.976;8.240;2022-07-23T02:21:14;100007.81;;;20.10;100.00
804;BME280;25687;49.976;8.240;2022-07-23T02:23:39;100006.31;;;20.08;100.00
804;BME280;25687;49.976;8.240;2022-07-23T02:26:05;100012.44;;;19.98;100.00
804;BME280;25687;49.976;8.240;2022-07-23T02:28:30;100021.28;;;19.88;100.00
804;BME280;25687;49.976;8.240;2022-07-23T02:30:55;100024.34;;;19.83;100.00
804;BME280;25687;49.976;8.240;2022-07-23T02:33:21;100020.72;;;19.66;100.00
804;BME280;25687;49.976;8.240;2022-07-23T02:35:46;100007.84;;;19.45;100.00
804;BME280;25687;49.976;8.240;2022-07-23T02:38:11;100000.72;;;19.47;100.00
804;BME280;25687;49.976;8.240;2022-07-23T02:40:37;100003.06;;;19.50;100.00
804;BME280;25687;49.976;8.240;2022-07-23T02:43:02;99997.38;;;19.55;100.00
804;BME280;25687;49.976;8.240;2022-07-23T02:45:28;100003.03;;;19.60;100.00
804;BME280;25687;49.976;8.240;2022-07-23T02:47:53;100004.16;;;19.75;100.00
804;BME280;25687;49.976;8.240;2022-07-23T02:50:18;99992.38;;;19.71;100.00
804;BME280;25687;49.976;8.240;2022-07-23T02:52:44;99988.31;;;19.59;100.00
804;BME280;25687;49.976;8.240;2022-07-23T02:55:09;99987.38;;;19.60;100.00
804;BME280;25687;49.976;8.240;2022-07-23T02:57:36;99977.06;;;19.58;100.00
804;BME280;25687;49.976;8.240;2022-07-23T03:00:01;99987.59;;;19.66;100.00
804;BME280;25687;49.976;8.240;2022-07-23T03:02:26;99991.66;;;19.79;100.00
804;BME280;25687;49.976;8.240;2022-07-23T03:04:52;100003.72;;;19.90;100.00
804;BME280;25687;49.976;8.240;2022-07-23T03:07:18;100006.53;;;19.96;100.00
804;BME280;25687;49.976;8.240;2022-07-23T03:09:43;100005.38;;;19.81;100.00
804;BME280;25687;49.976;8.240;2022-07-23T03:12:08;99996.09;;;19.68;100.00
804;BME280;25687;49.976;8.240;2022-07-23T03:14:34;99995.78;;;19.54;100.00
804;BME280;25687;49.976;8.240;2022-07-23T03:16:59;100009.16;;;19.31;100.00
804;BME280;25687;49.976;8.240;2022-07-23T03:19:27;100008.97;;;19.42;100.00
804;BME280;25687;49.976;8.240;2022-07-23T03:21:52;100006.84;;;19.56;100.00
804;BME280;25687;49.976;8.240;2022-07-23T03:24:18;100005.03;;;19.38;100.00
804;BME280;25687;49.976;8.240;2022-07-23T03:26:43;100014.59;;;19.47;100.00
804;BME280;25687;49.976;8.240;2022-07-23T03:29:09;100020.75;;;19.56;100.00
804;BME280;25687;49.976;8.240;2022-07-23T03:31:34;100035.53;;;19.65;100.00
804;BME280;25687;49.976;8.240;2022-07-23T03:34:00;100046.88;;;19.74;100.00
804;BME280;25687;49.976;8.240;2022-07-23T03:36:25;100051.44;;;19.72;100.00
804;BME280;25687;49.976;8.240;2022-07-23T03:38:51;100050.97;;;19.77;100.00
804;BME280;25687;49.976;8.240;2022-07-23T03:41:17;100051.91;;;19.58;100.00
804;BME280;25687;49.976;8.240;2022-07-23T03:43:42;100041.13;;;19.43;100.00
804;BME280;25687;49.976;8.240;2022-07-23T03:46:08;100038.38;;;19.34;100.00
804;BME280;25687;49.976;8.240;2022-07-23T03:48:33;100039.03;;;19.46;100.00
804;BME280;25687;49.976;8.240;2022-07-23T03:50:58;100033.78;;;19.56;100.00
804;BME280;25687;49.976;8.240;2022-07-23T03:53:24;100034.25;;;19.42;100.00
804;BME280;25687;49.976;8.240;2022-07-23T03:55:49;100031.78;;;19.40;100.00
804;BME280;25687;49.976;8.240;2022-07-23T03:58:14;100036.31;;;19.38;100.00
804;BME280;25687;49.976;8.240;2022-07-23T04:00:40;100040.41;;;19.41;100.00
804;BME280;25687;49.976;8.240;2022-07-23T04:03:05;100041.78;;;19.45;100.00
804;BME280;25687;49.976;8.240;2022-07-23T04:05:30;100049.44;;;19.56;100.00
804;BME280;25687;49.976;8.240;2022-07-23T04:07:55;100056.28;;;19.57;100.00
804;BME280;25687;49.976;8.240;2022-07-23T04:10:21;100065.63;;;19.60;100.00
804;BME280;25687;49.976;8.240;2022-07-23T04:12:46;100074.13;;;19.62;100.00
804;BME280;25687;49.976;8.240;2022-07-23T04:15:12;100081.13;;;19.61;100.00
804;BME280;25687;49.976;8.240;2022-07-23T04:17:37;100090.88;;;19.59;100.00
804;BME280;25687;49.976;8.240;2022-07-23T04:20:03;100088.22;;;19.41;100.00
804;BME280;25687;49.976;8.240;2022-07-23T04:22:28;100087.16;;;19.62;100.00
804;BME280;25687;49.976;8.240;2022-07-23T04:24:53;100088.81;;;19.63;100.00
804;BME280;25687;49.976;8.240;2022-07-23T04:27:19;100094.03;;;19.63;100.00
804;BME280;25687;49.976;8.240;2022-07-23T04:29:44;100096.81;;;19.51;100.00
804;BME280;25687;49.976;8.240;2022-07-23T04:32:09;100104.78;;;19.60;100.00
804;BME280;25687;49.976;8.240;2022-07-23T04:34:35;100097.44;;;19.63;100.00
804;BME280;25687;49.976;8.240;2022-07-23T04:37:00;100093.09;;;19.54;100.00
804;BME280;25687;49.976;8.240;2022-07-23T04:39:25;100103.97;;;19.49;100.00
804;BME280;25687;49.976;8.240;2022-07-23T04:41:51;100114.16;;;19.43;100.00
804;BME280;25687;49.976;8.240;2022-07-23T04:44:16;100114.53;;;19.48;100.00
804;BME280;25687;49.976;8.240;2022-07-23T04:46:41;100118.22;;;19.55;100.00
804;BME280;25687;49.976;8.240;2022-07-23T04:49:07;100115.78;;;19.54;100.00
804;BME280;25687;49.976;8.240;2022-07-23T04:51:32;100117.94;;;19.58;100.00
804;BME280;25687;49.976;8.240;2022-07-23T04:53:57;100113.28;;;19.52;100.00
804;BME280;25687;49.976;8.240;2022-07-23T04:56:23;100118.78;;;19.49;100.00
804;BME280;25687;49.976;8.240;2022-07-23T04:58:48;100119.91;;;19.46;100.00
804;BME280;25687;49.976;8.240;2022-07-23T05:01:13;100127.03;;;19.54;100.00
804;BME280;25687;49.976;8.240;2022-07-23T05:03:39;100129.38;;;19.47;100.00
804;BME280;25687;49.976;8.240;2022-07-23T05:06:04;100131.66;;;19.60;100.00
804;BME280;25687;49.976;8.240;2022-07-23T05:08:29;100119.56;;;19.69;100.00
804;BME280;25687;49.976;8.240;2022-07-23T05:10:55;100117.75;;;19.70;100.00
804;BME280;25687;49.976;8.240;2022-07-23T05:13:20;100122.16;;;19.69;100.00
804;BME280;25687;49.976;8.240;2022-07-23T05:15:46;100137.66;;;19.80;100.00
804;BME280;25687;49.976;8.240;2022-07-23T05:18:12;100140.00;;;19.83;100.00
804;BME280;25687;49.976;8.240;2022-07-23T05:20:38;100142.91;;;19.71;100.00
804;BME280;25687;49.976;8.240;2022-07-23T05:23:03;100144.84;;;19.68;100.00
804;BME280;25687;49.976;8.240;2022-07-23T05:25:29;100144.00;;;19.68;100.00
804;BME280;25687;49.976;8.240;2022-07-23T05:27:54;100143.00;;;19.89;100.00
804;BME280;25687;49.976;8.240;2022-07-23T05:30:20;100138.16;;;20.04;100.00
804;BME280;25687;49.976;8.240;2022-07-23T05:32:45;100143.09;;;19.97;100.00
804;BME280;25687;49.976;8.240;2022-07-23T05:35:11;100136.25;;;19.96;100.00
804;BME280;25687;49.976;8.240;2022-07-23T05:37:36;100131.97;;;20.05;100.00
804;BME280;25687;49.976;8.240;2022-07-23T05:40:07;100130.22;;;20.23;100.00
804;BME280;25687;49.976;8.240;2022-07-23T05:42:34;100138.59;;;20.45;100.00
804;BME280;25687;49.976;8.240;2022-07-23T05:44:59;100148.63;;;20.68;100.00
804;BME280;25687;49.976;8.240;2022-07-23T05:47:24;100149.94;;;20.82;100.00
804;BME280;25687;49.976;8.240;2022-07-23T05:49:50;100151.81;;;21.07;98.49
804;BME280;25687;49.976;8.240;2022-07-23T05:52:15;100156.59;;;21.38;95.78
804;BME280;25687;49.976;8.240;2022-07-23T05:54:40;100157.63;;;21.45;93.78
804;BME280;25687;49.976;8.240;2022-07-23T05:57:06;100157.22;;;21.32;95.14
804;BME280;25687;49.976;8.240;2022-07-23T05:59:32;100153.50;;;21.35;94.67
804;BME280;25687;49.976;8.240;2022-07-23T06:01:57;100160.94;;;21.66;92.28
804;BME280;25687;49.976;8.240;2022-07-23T06:04:22;100154.81;;;21.91;90.27
804;BME280;25687;49.976;8.240;2022-07-23T06:06:48;100171.44;;;21.74;89.65
804;BME280;25687;49.976;8.240;2022-07-23T06:09:13;100170.03;;;21.88;90.14
804;BME280;25687;49.976;8.240;2022-07-23T06:11:40;100163.56;;;22.08;87.75
804;BME280;25687;49.976;8.240;2022-07-23T06:14:05;100162.66;;;22.18;87.90
804;BME280;25687;49.976;8.240;2022-07-23T06:16:31;100159.63;;;22.39;83.52
804;BME280;25687;49.976;8.240;2022-07-23T06:18:56;100157.88;;;21.79;87.37
804;BME280;25687;49.976;8.240;2022-07-23T06:21:21;100158.44;;;22.33;84.98
804;BME280;25687;49.976;8.240;2022-07-23T06:23:47;100159.84;;;22.62;81.86
804;BME280;25687;49.976;8.240;2022-07-23T06:26:12;100165.13;;;22.79;79.12
804;BME280;25687;49.976;8.240;2022-07-23T06:28:37;100160.03;;;22.77;79.86
804;BME280;25687;49.976;8.240;2022-07-23T06:31:03;100155.72;;;22.43;77.28
804;BME280;25687;49.976;8.240;2022-07-23T06:33:28;100157.78;;;21.97;79.16
804;BME280;25687;49.976;8.240;2022-07-23T06:35:53;100152.84;;;22.28;78.77
804;BME280;25687;49.976;8.240;2022-07-23T06:38:19;100152.78;;;22.54;76.30
804;BME280;25687;49.976;8.240;2022-07-23T06:40:44;100164.63;;;22.83;74.47
804;BME280;25687;49.976;8.240;2022-07-23T06:43:10;100169.72;;;22.93;72.48
804;BME280;25687;49.976;8.240;2022-07-23T06:45:36;100164.16;;;23.46;70.97
804;BME280;25687;49.976;8.240;2022-07-23T06:48:01;100161.09;;;24.70;63.09
804;BME280;25687;49.976;8.240;2022-07-23T06:50:28;100160.78;;;26.24;54.88
804;BME280;25687;49.976;8.240;2022-07-23T06:52:53;100163.91;;;26.71;53.42
804;BME280;25687;49.976;8.240;2022-07-23T06:55:19;100175.72;;;27.75;48.45
804;BME280;25687;49.976;8.240;2022-07-23T06:57:44;100182.16;;;28.01;47.53
804;BME280;25687;49.976;8.240;2022-07-23T07:00:10;100182.84;;;28.16;46.44
804;BME280;25687;49.976;8.240;2022-07-23T07:02:36;100191.78;;;28.91;44.20
804;BME280;25687;49.976;8.240;2022-07-23T07:05:01;100197.66;;;27.41;47.06
804;BME280;25687;49.976;8.240;2022-07-23T07:07:27;100180.56;;;28.69;45.47
804;BME280;25687;49.976;8.240;2022-07-23T07:09:52;100193.56;;;29.91;41.89
804;BME280;25687;49.976;8.240;2022-07-23T07:12:17;100203.34;;;30.49;39.96
804;BME280;25687;49.976;8.240;2022-07-23T07:14:42;100206.91;;;31.44;37.24
804;BME280;25687;49.976;8.240;2022-07-23T07:17:08;100208.66;;;31.32;37.55
804;BME280;25687;49.976;8.240;2022-07-23T07:19:36;100205.63;;;31.53;36.64
804;BME280;25687;49.976;8.240;2022-07-23T07:22:01;100218.72;;;31.92;36.15
804;BME280;25687;49.976;8.240;2022-07-23T07:24:27;100223.75;;;33.58;33.19
804;BME280;25687;49.976;8.240;2022-07-23T07:26:52;100218.44;;;34.10;31.86
804;BME280;25687;49.976;8.240;2022-07-23T07:29:17;100226.97;;;34.53;31.27
804;BME280;25687;49.976;8.240;2022-07-23T07:31:43;100224.28;;;33.12;33.37
804;BME280;25687;49.976;8.240;2022-07-23T07:34:08;100227.66;;;33.79;32.75
804;BME280;25687;49.976;8.240;2022-07-23T07:36:34;100233.00;;;34.20;32.20
804;BME280;25687;49.976;8.240;2022-07-23T07:39:01;100243.13;;;36.49;28.17
804;BME280;25687;49.976;8.240;2022-07-23T07:41:26;100241.22;;;36.00;28.35
804;BME280;25687;49.976;8.240;2022-07-23T07:43:51;100241.16;;;34.54;30.31
804;BME280;25687;49.976;8.240;2022-07-23T07:46:17;100243.63;;;34.03;31.11
804;BME280;25687;49.976;8.240;2022-07-23T07:48:42;100244.06;;;32.93;33.08
804;BME280;25687;49.976;8.240;2022-07-23T07:51:07;100258.09;;;32.70;32.82
804;BME280;25687;49.976;8.240;2022-07-23T07:53:33;100251.63;;;34.03;31.00
804;BME280;25687;49.976;8.240;2022-07-23T07:55:58;100258.72;;;33.61;31.54
804;BME280;25687;49.976;8.240;2022-07-23T07:58:24;100257.59;;;33.34;31.84
804;BME280;25687;49.976;8.240;2022-07-23T08:00:49;100262.03;;;34.57;30.68
804;BME280;25687;49.976;8.240;2022-07-23T08:03:14;100265.66;;;36.31;28.11
804;BME280;25687;49.976;8.240;2022-07-23T08:05:40;100265.19;;;37.65;26.43
804;BME280;25687;49.976;8.240;2022-07-23T08:08:05;100269.72;;;38.12;26.01
804;BME280;25687;49.976;8.240;2022-07-23T08:10:31;100272.03;;;37.93;25.01
804;BME280;25687;49.976;8.240;2022-07-23T08:12:57;100272.25;;;34.07;30.07
804;BME280;25687;49.976;8.240;2022-07-23T08:15:25;100264.47;;;34.75;29.75
804;BME280;25687;49.976;8.240;2022-07-23T08:17:51;100259.44;;;35.25;29.19
804;BME280;25687;49.976;8.240;2022-07-23T08:20:19;100254.47;;;35.34;29.28
804;BME280;25687;49.976;8.240;2022-07-23T08:22:59;100258.91;;;37.06;27.09
804;BME280;25687;49.976;8.240;2022-07-23T08:25:26;100263.97;;;37.88;25.90
804;BME280;25687;49.976;8.240;2022-07-23T08:27:52;100270.66;;;38.90;25.27
804;BME280;25687;49.976;8.240;2022-07-23T08:30:19;100272.19;;;39.63;23.77
804;BME280;25687;49.976;8.240;2022-07-23T08:32:57;100275.25;;;40.17;21.56
804;BME280;25687;49.976;8.240;2022-07-23T08:35:31;100277.00;;;40.37;21.46
804;BME280;25687;49.976;8.240;2022-07-23T08:37:57;100273.44;;;39.92;22.15
804;BME280;25687;49.976;8.240;2022-07-23T08:40:25;100271.47;;;38.90;22.43
804;BME280;25687;49.976;8.240;2022-07-23T08:42:51;100267.41;;;39.09;22.21
804;BME280;25687;49.976;8.240;2022-07-23T08:45:18;100270.00;;;38.16;22.59
804;BME280;25687;49.976;8.240;2022-07-23T08:47:48;100277.69;;;36.51;24.56
804;BME280;25687;49.976;8.240;2022-07-23T08:50:14;100275.69;;;34.43;27.00
804;BME280;25687;49.976;8.240;2022-07-23T08:52:40;100276.25;;;32.61;29.59
804;BME280;25687;49.976;8.240;2022-07-23T08:55:06;100268.72;;;32.58;30.78
804;BME280;25687;49.976;8.240;2022-07-23T08:57:32;100269.38;;;34.50;27.65
804;BME280;25687;49.976;8.240;2022-07-23T08:59:58;100268.72;;;34.31;27.27
804;BME280;25687;49.976;8.240;2022-07-23T09:02:23;100264.06;;;33.97;27.54
804;BME280;25687;49.976;8.240;2022-07-23T09:04:49;100253.88;;;33.46;28.29
804;BME280;25687;49.976;8.240;2022-07-23T09:07:14;100260.69;;;34.02;27.99
804;BME280;25687;49.976;8.240;2022-07-23T09:09:40;100258.56;;;32.66;30.27
804;BME280;25687;49.976;8.240;2022-07-23T09:12:07;100261.63;;;32.51;30.29
804;BME280;25687;49.976;8.240;2022-07-23T09:17:09;100258.63;;;32.60;29.26
804;BME280;25687;49.976;8.240;2022-07-23T09:19:35;100251.53;;;33.98;27.88
804;BME280;25687;49.976;8.240;2022-07-23T09:22:20;100251.41;;;35.25;25.28
804;BME280;25687;49.976;8.240;2022-07-23T09:25:12;100260.88;;;36.56;23.97
804;BME280;25687;49.976;8.240;2022-07-23T09:27:46;100262.84;;;36.93;22.83
804;BME280;25687;49.976;8.240;2022-07-23T09:30:12;100269.09;;;36.27;23.58
804;BME280;25687;49.976;8.240;2022-07-23T09:32:39;100265.41;;;35.66;25.18
804;BME280;25687;49.976;8.240;2022-07-23T09:35:05;100271.22;;;36.25;23.63
804;BME280;25687;49.976;8.240;2022-07-23T09:37:30;100271.09;;;37.67;22.07
804;BME280;25687;49.976;8.240;2022-07-23T09:40:04;100259.50;;;35.86;24.00
804;BME280;25687;49.976;8.240;2022-07-23T09:42:29;100259.47;;;34.62;25.47
804;BME280;25687;49.976;8.240;2022-07-23T09:44:57;100259.94;;;34.59;26.02
804;BME280;25687;49.976;8.240;2022-07-23T09:47:25;100259.91;;;35.56;23.99
804;BME280;25687;49.976;8.240;2022-07-23T09:52:31;100265.56;;;36.43;23.45
804;BME280;25687;49.976;8.240;2022-07-23T09:55:04;100263.38;;;37.33;22.78
804;BME280;25687;49.976;8.240;2022-07-23T09:57:32;100261.53;;;37.01;22.97
804;BME280;25687;49.976;8.240;2022-07-23T10:00:00;100257.50;;;36.16;22.73
804;BME280;25687;49.976;8.240;2022-07-23T10:02:28;100261.19;;;35.36;23.62
804;BME280;25687;49.976;8.240;2022-07-23T10:04:54;100267.28;;;36.32;23.31
804;BME280;25687;49.976;8.240;2022-07-23T10:07:22;100257.25;;;34.88;25.28
804;BME280;25687;49.976;8.240;2022-07-23T10:09:50;100249.78;;;33.20;27.02
804;BME280;25687;49.976;8.240;2022-07-23T10:12:18;100252.22;;;33.10;27.39
804;BME280;25687;49.976;8.240;2022-07-23T10:14:46;100255.22;;;32.03;28.84
804;BME280;25687;49.976;8.240;2022-07-23T10:17:13;100256.75;;;31.74;29.82
804;BME280;25687;49.976;8.240;2022-07-23T10:19:39;100256.81;;;31.17;29.89
804;BME280;25687;49.976;8.240;2022-07-23T10:22:08;100255.97;;;30.59;31.17
804;BME280;25687;49.976;8.240;2022-07-23T10:24:47;100243.59;;;31.35;30.21
804;BME280;25687;49.976;8.240;2022-07-23T10:30:05;100257.09;;;32.22;29.02
804;BME280;25687;49.976;8.240;2022-07-23T10:33:03;100249.00;;;35.06;26.00
804;BME280;25687;49.976;8.240;2022-07-23T10:35:44;100253.69;;;37.79;21.99
804;BME280;25687;49.976;8.240;2022-07-23T10:40:58;100245.00;;;37.52;22.08
804;BME280;25687;49.976;8.240;2022-07-23T10:43:25;100248.22;;;35.84;23.91
804;BME280;25687;49.976;8.240;2022-07-23T10:45:51;100248.25;;;34.07;26.61
804;BME280;25687;49.976;8.240;2022-07-23T10:50:44;100247.59;;;30.03;31.56
804;BME280;25687;49.976;8.240;2022-07-23T10:56:49;100244.38;;;29.14;34.16
804;BME280;25687;49.976;8.240;2022-07-23T10:59:15;100242.72;;;29.13;34.25
804;BME280;25687;49.976;8.240;2022-07-23T11:01:40;100239.50;;;29.38;33.89
804;BME280;25687;49.976;8.240;2022-07-23T11:04:06;100229.25;;;29.82;33.46
804;BME280;25687;49.976;8.240;2022-07-23T11:09:40;100235.25;;;29.30;33.71
804;BME280;25687;49.976;8.240;2022-07-23T11:17:33;100227.63;;;28.87;34.50
804;BME280;25687;49.976;8.240;2022-07-23T11:25:10;100221.88;;;28.14;36.70
804;BME280;25687;49.976;8.240;2022-07-23T11:27:49;100219.31;;;28.96;36.06
804;BME280;25687;49.976;8.240;2022-07-23T11:35:39;100215.31;;;30.13;33.58
804;BME280;25687;49.976;8.240;2022-07-23T11:38:22;100218.44;;;29.76;32.67
804;BME280;25687;49.976;8.240;2022-07-23T11:40:55;100209.84;;;28.67;35.09
804;BME280;25687;49.976;8.240;2022-07-23T11:43:23;100209.09;;;28.93;35.35
804;BME280;25687;49.976;8.240;2022-07-23T11:45:56;100211.78;;;29.00;35.26
804;BME280;25687;49.976;8.240;2022-07-23T11:48:25;100208.09;;;29.01;35.32
804;BME280;25687;49.976;8.240;2022-07-23T11:50:52;100198.19;;;28.48;35.70
804;BME280;25687;49.976;8.240;2022-07-23T11:53:26;100205.84;;;28.91;34.89
804;BME280;25687;49.976;8.240;2022-07-23T11:55:52;100205.44;;;28.88;34.15
804;BME280;25687;49.976;8.240;2022-07-23T11:58:18;100210.63;;;28.54;34.69
804;BME280;25687;49.976;8.240;2022-07-23T12:00:44;100212.84;;;28.37;34.76
804;BME280;25687;49.976;8.240;2022-07-23T12:03:09;100208.91;;;28.20;35.13
804;BME280;25687;49.976;8.240;2022-07-23T12:05:36;100197.91;;;28.78;35.00
804;BME280;25687;49.976;8.240;2022-07-23T12:08:04;100201.34;;;28.72;33.86
804;BME280;25687;49.976;8.240;2022-07-23T12:10:34;100193.19;;;28.73;33.75
804;BME280;25687;49.976;8.240;2022-07-23T12:13:18;100194.63;;;28.76;33.56
804;BME280;25687;49.976;8.240;2022-07-23T12:15:49;100186.69;;;28.69;33.92
804;BME280;25687;49.976;8.240;2022-07-23T12:18:23;100187.13;;;28.93;33.43
804;BME280;25687;49.976;8.240;2022-07-23T12:20:51;100189.75;;;29.20;32.97
804;BME280;25687;49.976;8.240;2022-07-23T12:23:18;100191.41;;;29.41;32.83
804;BME280;25687;49.976;8.240;2022-07-23T12:25:45;100198.53;;;29.07;32.58
804;BME280;25687;49.976;8.240;2022-07-23T12:28:22;100186.31;;;29.06;33.08
804;BME280;25687;49.976;8.240;2022-07-23T12:30:53;100188.75;;;29.07;33.49
804;BME280;25687;49.976;8.240;2022-07-23T12:33:29;100189.38;;;29.43;32.18
804;BME280;25687;49.976;8.240;2022-07-23T12:35:57;100188.75;;;29.48;32.59
804;BME280;25687;49.976;8.240;2022-07-23T12:38:24;100186.94;;;29.41;32.84
804;BME280;25687;49.976;8.240;2022-07-23T12:40:55;100182.63;;;29.07;32.99
804;BME280;25687;49.976;8.240;2022-07-23T12:45:55;100199.56;;;29.39;33.39
804;BME280;25687;49.976;8.240;2022-07-23T12:51:01;100193.22;;;29.47;32.50
804;BME280;25687;49.976;8.240;2022-07-23T12:53:28;100198.94;;;29.51;32.38
804;BME280;25687;49.976;8.240;2022-07-23T12:58:53;100193.25;;;29.40;32.16
804;BME280;25687;49.976;8.240;2022-07-23T13:04:17;100201.72;;;29.96;31.83
804;BME280;25687;49.976;8.240;2022-07-23T13:06:56;100198.72;;;28.98;32.54
804;BME280;25687;49.976;8.240;2022-07-23T13:09:28;100188.97;;;28.99;33.10
804;BME280;25687;49.976;8.240;2022-07-23T13:11:55;100199.34;;;29.41;32.35
804;BME280;25687;49.976;8.240;2022-07-23T13:14:21;100203.19;;;29.65;32.28
804;BME280;25687;49.976;8.240;2022-07-23T13:16:49;100200.50;;;29.92;31.80
804;BME280;25687;49.976;8.240;2022-07-23T13:19:15;100201.59;;;29.44;31.72
804;BME280;25687;49.976;8.240;2022-07-23T13:21:41;100203.22;;;29.18;32.25
804;BME280;25687;49.976;8.240;2022-07-23T13:24:08;100195.66;;;28.95;33.15
804;BME280;25687;49.976;8.240;2022-07-23T13:26:34;100207.69;;;29.11;32.78
804;BME280;25687;49.976;8.240;2022-07-23T13:28:59;100195.91;;;29.40;32.83
804;BME280;25687;49.976;8.240;2022-07-23T13:31:24;100189.53;;;29.61;32.05
804;BME280;25687;49.976;8.240;2022-07-23T13:33:50;100199.53;;;29.26;32.18
804;BME280;25687;49.976;8.240;2022-07-23T13:36:15;100186.63;;;29.83;32.27
804;BME280;25687;49.976;8.240;2022-07-23T13:38:41;100195.25;;;30.31;31.93
804;BME280;25687;49.976;8.240;2022-07-23T13:41:06;100192.97;;;30.34;30.75
804;BME280;25687;49.976;8.240;2022-07-23T13:43:32;100191.69;;;30.50;29.99
804;BME280;25687;49.976;8.240;2022-07-23T13:45:58;100193.44;;;30.63;29.50
804;BME280;25687;49.976;8.240;2022-07-23T13:48:24;100189.56;;;30.66;29.49
804;BME280;25687;49.976;8.240;2022-07-23T13:50:50;100182.19;;;30.29;30.13
804;BME280;25687;49.976;8.240;2022-07-23T13:53:22;100190.34;;;30.66;29.81